Terminal Aerodrome Forecast
Issued by NWS Boston, MA

Home | Current Version | Previous Version | Text Only | Print | Product List | Glossary On
Versions: 1 2 3 4 5 6 7 8 9 10 11 12 13 14 15 16 17 18 19 20 21 22 23 24 25 26 27 28 29 30 31 32 33 34 35 36 37 38 39 40 41 42 43 44 45 46
041
FTUS41 KBOX 251609 AAB
TAFORH
TAF AMD
KORH 251609Z 2516/2612 03005KT P6SM OVC005
     FM251800 02005KT P6SM FEW005 OVC010
     FM252000 03005KT P6SM SCT010 BKN020
     FM252200 03005KT P6SM FEW020 BKN035
     FM260100 03004KT P6SM SCT035
     FM260900 33005KT 5SM BR FEW250
     FM261100 36004KT P6SM FEW250=

USA.gov is the U.S. government's official web portal to all federal, state and local government web resources and services.